createdAt,value
2022-11-03T00:00:58.260Z,9.05
2022-11-03T00:03:22.928Z,10.77
2022-11-03T00:06:12.013Z,14.32
2022-11-03T00:08:38.551Z,13.43
2022-11-03T00:11:08.413Z,11.13
2022-11-03T00:13:31.782Z,9.77
2022-11-03T00:15:55.234Z,12.15
2022-11-03T00:18:18.489Z,14.13
2022-11-03T00:20:43.443Z,10.48
2022-11-03T00:23:07.092Z,15.98
2022-11-03T00:25:30.545Z,9.68
2022-11-03T00:27:58.199Z,18.40
2022-11-03T00:30:21.613Z,10.57
2022-11-03T00:32:44.877Z,13.50
2022-11-03T00:35:09.070Z,13.50
2022-11-03T00:37:33.706Z,9.73
2022-11-03T00:39:56.945Z,12.80
2022-11-03T00:42:20.294Z,12.20
2022-11-03T00:44:43.485Z,16.52
2022-11-03T00:47:06.856Z,11.07
2022-11-03T00:49:30.004Z,11.57
2022-11-03T00:51:53.178Z,11.88
2022-11-03T00:54:17.936Z,10.32
2022-11-03T00:56:44.247Z,11.80
2022-11-03T00:59:09.815Z,12.88
2022-11-03T01:01:40.559Z,11.05
2022-11-03T01:04:25.291Z,12.15
2022-11-03T01:06:51.749Z,10.52
2022-11-03T01:09:15.119Z,10.82
2022-11-03T01:11:45.741Z,9.65
2022-11-03T01:14:10.336Z,12.50
2022-11-03T01:16:33.955Z,13.48
2022-11-03T01:18:57.791Z,9.68
2022-11-03T01:21:21.321Z,12.77
2022-11-03T01:23:44.885Z,11.35
2022-11-03T01:26:09.631Z,13.88
2022-11-03T01:28:35.123Z,14.10
2022-11-03T01:31:04.426Z,12.55
2022-11-03T01:33:27.757Z,18.25
2022-11-03T01:35:54.578Z,12.77
2022-11-03T01:38:17.847Z,13.75
2022-11-03T01:40:41.079Z,11.77
2022-11-03T01:43:17.421Z,12.32
2022-11-03T01:45:42.107Z,14.70
2022-11-03T01:48:05.931Z,10.23
2022-11-03T01:50:30.206Z,12.40
2022-11-03T01:52:57.933Z,14.73
2022-11-03T01:55:26.050Z,11.48
2022-11-03T01:57:55.298Z,12.63
2022-11-03T02:00:18.776Z,11.15
2022-11-03T02:02:45.042Z,11.32
2022-11-03T02:05:10.717Z,12.18
2022-11-03T02:07:39.528Z,13.40
2022-11-03T02:10:02.966Z,11.80
2022-11-03T02:12:27.140Z,14.85
2022-11-03T02:14:54.873Z,11.63
2022-11-03T02:17:20.525Z,14.30
2022-11-03T02:19:50.793Z,13.45
2022-11-03T02:22:36.631Z,13.95
2022-11-03T02:25:11.864Z,14.25
2022-11-03T02:27:36.675Z,11.25
2022-11-03T02:30:00.787Z,19.02
2022-11-03T02:32:27.349Z,12.68
2022-11-03T02:34:57.270Z,15.32
2022-11-03T02:37:24.578Z,12.63
2022-11-03T02:39:53.053Z,15.45
2022-11-03T02:42:19.442Z,14.93
2022-11-03T02:44:46.078Z,13.20
2022-11-03T02:47:12.955Z,10.95
2022-11-03T02:49:40.453Z,13.85
2022-11-03T02:52:06.274Z,11.50
2022-11-03T02:54:35.764Z,13.13
2022-11-03T02:57:03.833Z,12.65
2022-11-03T02:59:31.555Z,10.95
2022-11-03T03:02:03.282Z,11.55
2022-11-03T03:04:32.603Z,13.85
2022-11-03T03:07:02.882Z,13.20
2022-11-03T03:09:30.959Z,11.40
2022-11-03T03:11:56.824Z,13.30
2022-11-03T03:14:24.740Z,12.43
2022-11-03T03:17:01.600Z,17.58
2022-11-03T03:19:39.150Z,11.40
2022-11-03T03:22:12.666Z,13.63
2022-11-03T03:24:43.443Z,12.13
2022-11-03T03:27:12.807Z,10.07
2022-11-03T03:29:41.340Z,8.45
2022-11-03T03:32:11.099Z,19.00
2022-11-03T03:34:39.179Z,12.25
2022-11-03T03:37:03.788Z,14.32
2022-11-03T03:39:32.965Z,17.70
2022-11-03T03:41:59.073Z,9.48
2022-11-03T03:44:22.815Z,13.65
2022-11-03T03:46:52.203Z,11.88
2022-11-03T03:49:17.027Z,14.48
2022-11-03T03:51:40.707Z,17.35
2022-11-03T03:54:04.114Z,19.30
2022-11-03T03:56:32.809Z,11.95
2022-11-03T03:58:56.065Z,12.40
2022-11-03T04:01:19.459Z,12.88
2022-11-03T04:03:42.799Z,12.57
2022-11-03T04:06:07.661Z,11.02
2022-11-03T04:08:30.893Z,15.20
2022-11-03T04:11:11.647Z,13.18
2022-11-03T04:13:53.158Z,11.68
2022-11-03T04:16:33.542Z,14.68
2022-11-03T04:19:14.190Z,15.48
2022-11-03T04:21:56.556Z,13.65
2022-11-03T04:24:19.837Z,8.50
2022-11-03T04:26:43.057Z,12.82
2022-11-03T04:29:10.802Z,15.45
2022-11-03T04:31:37.395Z,10.52
2022-11-03T04:34:01.112Z,11.15
2022-11-03T04:36:26.723Z,18.85
2022-11-03T04:38:52.691Z,15.82
2022-11-03T04:41:19.759Z,9.98
2022-11-03T04:43:43.729Z,14.95
2022-11-03T04:46:10.820Z,11.55
2022-11-03T04:48:35.650Z,14.55
2022-11-03T04:51:01.673Z,14.02
2022-11-03T04:53:25.794Z,13.77
2022-11-03T04:55:53.230Z,17.27
2022-11-03T04:58:21.574Z,13.45
2022-11-03T05:00:44.879Z,15.05
2022-11-03T05:03:16.457Z,12.18
2022-11-03T05:05:40.043Z,12.98
2022-11-03T05:08:03.316Z,14.07
2022-11-03T05:10:29.170Z,14.00
2022-11-03T05:12:55.787Z,12.40
2022-11-03T05:15:31.688Z,11.55
2022-11-03T05:17:54.966Z,13.38
2022-11-03T05:20:36.020Z,13.90
2022-11-03T05:23:00.260Z,12.02
2022-11-03T05:25:40.428Z,19.92
2022-11-03T05:28:10.931Z,12.68
2022-11-03T05:30:34.154Z,15.27
2022-11-03T05:32:57.458Z,15.55
2022-11-03T05:35:23.786Z,13.32
2022-11-03T05:37:47.036Z,14.95
2022-11-03T05:40:21.340Z,12.57
2022-11-03T05:42:47.889Z,17.48
2022-11-03T05:45:22.507Z,13.80
2022-11-03T05:47:45.805Z,15.73
2022-11-03T05:50:20.491Z,11.52
2022-11-03T05:52:45.697Z,11.18
2022-11-03T05:55:27.918Z,13.82
2022-11-03T05:57:51.471Z,10.43
2022-11-03T06:00:29.488Z,10.93
2022-11-03T06:02:52.858Z,15.52
2022-11-03T06:05:22.033Z,14.25
2022-11-03T06:07:45.710Z,15.75
2022-11-03T06:10:24.993Z,12.63
2022-11-03T06:12:48.468Z,12.38
2022-11-03T06:15:29.565Z,11.07
2022-11-03T06:17:53.596Z,10.25
2022-11-03T06:20:22.678Z,15.50
2022-11-03T06:22:45.977Z,12.80
2022-11-03T06:25:20.347Z,11.98
2022-11-03T06:27:43.808Z,15.70
2022-11-03T06:30:25.537Z,14.13
2022-11-03T06:32:50.192Z,14.02
2022-11-03T06:35:15.789Z,15.43
2022-11-03T06:37:39.310Z,12.90
2022-11-03T06:40:30.222Z,13.60
2022-11-03T06:42:55.413Z,13.88
2022-11-03T06:45:24.020Z,15.85
2022-11-03T06:47:49.425Z,10.57
2022-11-03T06:50:26.307Z,13.77
2022-11-03T06:52:50.451Z,14.55
2022-11-03T06:55:25.534Z,11.70
2022-11-03T06:57:50.309Z,11.25
2022-11-03T07:00:40.402Z,10.00
2022-11-03T07:03:10.745Z,15.65
2022-11-03T07:05:35.195Z,11.45
2022-11-03T07:08:00.546Z,11.75
2022-11-03T07:10:26.486Z,10.52
2022-11-03T07:12:49.819Z,15.73
2022-11-03T07:15:26.957Z,12.82
2022-11-03T07:17:50.364Z,12.45
2022-11-03T07:20:17.982Z,16.77
2022-11-03T07:22:41.265Z,11.63
2022-11-03T07:25:11.265Z,11.02
2022-11-03T07:27:38.493Z,18.98
2022-11-03T07:30:15.749Z,11.38
2022-11-03T07:32:40.046Z,9.10
2022-11-03T07:35:46.987Z,11.05
2022-11-03T07:38:17.545Z,11.48
2022-11-03T07:40:41.593Z,14.20
2022-11-03T07:43:16.949Z,14.52
2022-11-03T07:45:42.562Z,11.57
2022-11-03T07:48:20.583Z,16.83
2022-11-03T07:50:45.262Z,13.93
2022-11-03T07:53:15.570Z,12.10
2022-11-03T07:55:38.823Z,13.20
2022-11-03T07:58:01.998Z,10.00
2022-11-03T08:00:25.486Z,13.23
2022-11-03T08:02:51.621Z,10.63
2022-11-03T08:05:15.072Z,12.50
2022-11-03T08:07:39.737Z,9.07
2022-11-03T08:10:03.034Z,18.45
2022-11-03T08:12:26.397Z,16.10
2022-11-03T08:14:49.968Z,12.27
2022-11-03T08:17:14.393Z,16.58
2022-11-03T08:19:37.615Z,9.48
2022-11-03T08:22:00.833Z,13.20
2022-11-03T08:24:25.592Z,9.30
2022-11-03T08:26:49.527Z,16.25
2022-11-03T08:29:12.798Z,12.15
2022-11-03T08:31:36.029Z,12.50
2022-11-03T08:33:59.305Z,13.82
2022-11-03T08:36:22.570Z,9.73
2022-11-03T08:38:45.802Z,8.93
2022-11-03T08:41:10.401Z,10.13
2022-11-03T08:43:33.707Z,11.75
2022-11-03T08:46:03.404Z,16.08
2022-11-03T08:48:33.367Z,13.18
2022-11-03T08:50:57.267Z,14.57
2022-11-03T08:53:20.519Z,8.30
2022-11-03T08:55:43.903Z,11.85
2022-11-03T08:58:08.912Z,11.98
2022-11-03T09:00:34.936Z,13.55
2022-11-03T09:03:01.625Z,12.00
2022-11-03T09:05:24.927Z,13.68
2022-11-03T09:10:33.425Z,16.77
2022-11-03T09:12:58.661Z,12.50
2022-11-03T09:15:23.429Z,10.00
2022-11-03T09:17:46.760Z,14.88
2022-11-03T09:20:11.076Z,11.90
2022-11-03T09:22:34.353Z,11.07
2022-11-03T09:24:57.761Z,6.07
2022-11-03T09:27:20.993Z,11.25
2022-11-03T09:30:11.107Z,13.07
2022-11-03T09:32:28.959Z,9.95
2022-11-03T09:34:52.203Z,10.63
2022-11-03T09:37:15.978Z,12.20
2022-11-03T09:39:39.256Z,10.23
2022-11-03T09:42:04.689Z,11.68
2022-11-03T09:44:28.124Z,9.73
2022-11-03T09:46:55.420Z,14.50
2022-11-03T09:49:23.101Z,9.07
2022-11-03T09:51:46.533Z,13.65
2022-11-03T09:54:16.435Z,12.45
2022-11-03T09:56:41.673Z,9.48
2022-11-03T09:59:15.890Z,11.32
2022-11-03T10:01:39.225Z,13.10
2022-11-03T10:04:02.854Z,12.32
2022-11-03T10:06:27.552Z,14.40
2022-11-03T10:08:51.043Z,10.38
2022-11-03T10:11:15.023Z,12.93
2022-11-03T10:13:41.151Z,11.35
2022-11-03T10:16:08.270Z,12.90
2022-11-03T10:18:31.636Z,12.30
2022-11-03T10:20:55.129Z,15.88
2022-11-03T10:23:19.764Z,9.75
2022-11-03T10:25:45.386Z,9.00
2022-11-03T10:28:18.695Z,11.60
2022-11-03T10:33:40.467Z,10.48
2022-11-03T10:36:06.310Z,9.20
2022-11-03T10:38:34.672Z,7.93
2022-11-03T10:40:59.178Z,12.25
2022-11-03T10:43:22.544Z,6.90
2022-11-03T10:45:45.744Z,7.38
2022-11-03T10:48:11.503Z,8.57
2022-11-03T10:50:34.703Z,11.73
2022-11-03T10:52:58.644Z,12.50
2022-11-03T10:55:25.832Z,8.77
2022-11-03T10:57:53.157Z,9.73
2022-11-03T11:00:19.001Z,13.82
2022-11-03T11:02:44.216Z,8.88
2022-11-03T11:05:16.675Z,8.60
2022-11-03T11:07:42.543Z,6.93
2022-11-03T11:10:15.043Z,6.75
2022-11-03T11:12:39.832Z,9.88
2022-11-03T11:15:07.252Z,11.05
2022-11-03T11:17:49.656Z,9.57
2022-11-03T11:20:40.192Z,7.57
2022-11-03T11:23:49.408Z,8.32
2022-11-03T11:26:32.849Z,10.40
2022-11-03T11:29:45.629Z,11.38
2022-11-03T11:32:52.115Z,9.65
2022-11-03T11:35:34.166Z,12.60
2022-11-03T11:37:57.490Z,6.10
2022-11-03T11:40:51.911Z,9.00
2022-11-03T11:43:28.674Z,6.50
2022-11-03T11:46:41.173Z,11.00
2022-11-03T11:49:20.340Z,9.55
2022-11-03T11:51:43.795Z,6.40
2022-11-03T11:54:20.393Z,6.75
2022-11-03T11:56:45.413Z,7.78
2022-11-03T11:59:24.314Z,8.15
2022-11-03T12:01:54.454Z,4.22
2022-11-03T12:04:23.374Z,10.65
2022-11-03T12:06:46.632Z,7.30
2022-11-03T12:09:18.057Z,9.15
2022-11-03T12:11:47.674Z,9.55
2022-11-03T12:14:26.720Z,6.72
2022-11-03T12:16:51.383Z,3.88
2022-11-03T12:19:37.966Z,12.80
2022-11-03T12:22:01.838Z,6.15
2022-11-03T12:24:36.864Z,7.57
2022-11-03T12:27:01.169Z,5.22
2022-11-03T12:29:24.643Z,7.30
2022-11-03T12:31:48.650Z,11.25
2022-11-03T12:34:13.402Z,6.85
2022-11-03T12:36:36.771Z,6.72
2022-11-03T12:39:00.130Z,9.95
2022-11-03T12:41:24.709Z,11.45
2022-11-03T12:43:49.494Z,10.43
2022-11-03T12:46:12.937Z,8.48
2022-11-03T12:48:36.161Z,8.30
2022-11-03T12:51:01.059Z,7.55
2022-11-03T12:53:24.228Z,5.93
2022-11-03T12:55:47.470Z,7.13
2022-11-03T12:58:10.719Z,7.60
2022-11-03T13:00:34.007Z,8.15
2022-11-03T13:02:57.405Z,6.75
2022-11-03T13:05:20.680Z,5.32
2022-11-03T13:07:45.403Z,9.40
2022-11-03T13:10:09.935Z,11.70
2022-11-03T13:12:32.318Z,14.20
2022-11-03T13:14:55.629Z,8.27
2022-11-03T13:17:18.842Z,6.47
2022-11-03T13:19:42.114Z,8.02
2022-11-03T13:22:05.470Z,10.88
2022-11-03T13:24:30.057Z,9.93
2022-11-03T13:26:53.329Z,9.02
2022-11-03T13:29:16.638Z,6.45
2022-11-03T13:31:39.926Z,6.22
2022-11-03T13:34:03.185Z,8.15
2022-11-03T13:36:26.688Z,9.18
2022-11-03T13:38:50.023Z,7.25
2022-11-03T13:41:14.756Z,7.55
2022-11-03T13:43:38.255Z,5.93
2022-11-03T13:46:02.545Z,4.60
2022-11-03T13:51:11.951Z,7.40
2022-11-03T13:56:22.116Z,5.63
2022-11-03T14:01:29.339Z,5.50
2022-11-03T14:06:36.075Z,8.45
2022-11-03T14:08:59.332Z,8.02
2022-11-03T14:11:41.689Z,6.72
2022-11-03T14:14:04.936Z,8.48
2022-11-03T14:16:28.192Z,4.90
2022-11-03T14:18:51.430Z,7.70
2022-11-03T14:21:14.755Z,7.65
2022-11-03T14:23:38.091Z,5.43
2022-11-03T14:26:14.183Z,5.45
2022-11-03T14:28:46.130Z,7.45
2022-11-03T14:31:09.421Z,6.03
2022-11-03T14:33:32.692Z,8.95
2022-11-03T14:35:55.970Z,6.50
2022-11-03T14:38:19.205Z,7.32
2022-11-03T14:41:00.047Z,8.00
2022-11-03T14:43:23.275Z,6.93
2022-11-03T14:45:47.880Z,7.45
2022-11-03T14:48:11.192Z,6.25
2022-11-03T14:50:34.396Z,7.25
2022-11-03T14:52:59.839Z,11.23
2022-11-03T14:55:23.316Z,5.53
2022-11-03T14:57:46.554Z,8.77
2022-11-03T15:00:12.215Z,7.28
2022-11-03T15:02:37.086Z,13.60
2022-11-03T15:05:00.453Z,6.72
2022-11-03T15:07:23.692Z,11.32
2022-11-03T15:09:46.959Z,7.93
2022-11-03T15:12:10.239Z,9.32
2022-11-03T15:14:33.854Z,8.27
2022-11-03T15:16:57.073Z,7.55
2022-11-03T15:19:21.829Z,9.82
2022-11-03T15:21:44.967Z,16.20
2022-11-03T15:26:52.162Z,8.98
2022-11-03T15:29:15.399Z,7.70
2022-11-03T15:31:39.291Z,9.57
2022-11-03T15:34:06.094Z,8.75
2022-11-03T15:36:33.449Z,6.55
2022-11-03T15:38:56.634Z,7.28
2022-11-03T15:41:20.066Z,8.38
2022-11-03T15:43:43.832Z,9.43
2022-11-03T15:46:07.174Z,8.35
2022-11-03T15:48:34.373Z,9.00
2022-11-03T15:50:57.977Z,8.63
2022-11-03T15:53:22.566Z,6.03
2022-11-03T15:55:45.835Z,8.73
2022-11-03T15:58:09.497Z,9.00
2022-11-03T16:00:32.825Z,15.18
2022-11-03T16:02:56.304Z,7.43
2022-11-03T16:05:24.793Z,13.23
2022-11-03T16:07:48.503Z,11.80
2022-11-03T16:10:13.325Z,9.18
2022-11-03T16:12:37.506Z,9.30
2022-11-03T16:15:00.949Z,8.18
2022-11-03T16:17:24.279Z,11.40
2022-11-03T16:19:47.563Z,11.60
2022-11-03T16:22:10.881Z,12.18
2022-11-03T16:24:35.414Z,10.20
2022-11-03T16:27:00.304Z,9.13
2022-11-03T16:29:23.673Z,9.13
2022-11-03T16:31:49.238Z,9.90
2022-11-03T16:34:12.561Z,8.07
2022-11-03T16:36:36.244Z,8.02
2022-11-03T16:38:59.488Z,6.47
2022-11-03T16:41:22.690Z,13.93
2022-11-03T16:43:48.030Z,8.77
2022-11-03T16:46:11.529Z,9.82
2022-11-03T16:48:35.217Z,12.23
2022-11-03T16:50:58.691Z,7.78
2022-11-03T16:53:22.031Z,9.00
2022-11-03T16:55:46.215Z,9.50
2022-11-03T16:58:10.066Z,11.30
2022-11-03T17:00:34.660Z,10.50
2022-11-03T17:02:59.685Z,9.57
2022-11-03T17:05:23.301Z,11.35
2022-11-03T17:07:52.844Z,10.40
2022-11-03T17:10:16.939Z,13.85
2022-11-03T17:12:40.196Z,9.85
2022-11-03T17:15:03.883Z,11.48
2022-11-03T17:17:28.834Z,10.02
2022-11-03T17:19:52.240Z,10.10
2022-11-03T17:22:15.605Z,12.13
2022-11-03T17:24:38.859Z,12.32
2022-11-03T17:27:05.667Z,11.85
2022-11-03T17:29:35.957Z,14.88
2022-11-03T17:31:59.268Z,11.40
2022-11-03T17:34:26.039Z,9.13
2022-11-03T17:36:49.457Z,10.73
2022-11-03T17:39:16.701Z,7.78
2022-11-03T17:41:39.958Z,9.25
2022-11-03T17:44:03.150Z,9.00
2022-11-03T17:46:26.682Z,8.40
2022-11-03T17:48:49.897Z,10.90
2022-11-03T17:51:14.838Z,11.20
2022-11-03T17:53:38.355Z,10.07
2022-11-03T17:56:28.477Z,11.05
2022-11-03T17:58:47.403Z,9.05
2022-11-03T18:01:11.501Z,10.05
2022-11-03T18:03:35.034Z,9.35
2022-11-03T18:05:58.414Z,8.25
2022-11-03T18:08:23.108Z,9.38
2022-11-03T18:10:50.459Z,11.63
2022-11-03T18:13:18.236Z,9.43
2022-11-03T18:15:42.053Z,10.20
2022-11-03T18:18:14.936Z,10.98
2022-11-03T18:20:38.501Z,14.65
2022-11-03T18:23:15.584Z,10.75
2022-11-03T18:25:40.182Z,9.00
2022-11-03T18:28:03.520Z,14.57
2022-11-03T18:30:26.768Z,10.45
2022-11-03T18:32:50.062Z,14.35
2022-11-03T18:35:19.447Z,9.30
2022-11-03T18:37:44.370Z,11.90
2022-11-03T18:40:11.975Z,10.45
2022-11-03T18:42:36.582Z,11.60
2022-11-03T18:45:02.989Z,12.35
2022-11-03T18:47:26.809Z,9.02
2022-11-03T18:49:50.105Z,9.75
2022-11-03T18:52:16.270Z,10.43
2022-11-03T18:54:44.420Z,8.32
2022-11-03T18:57:10.139Z,9.13
2022-11-03T18:59:38.402Z,11.10
2022-11-03T19:02:02.655Z,8.02
2022-11-03T19:04:26.086Z,9.95
2022-11-03T19:06:51.451Z,10.55
2022-11-03T19:09:19.616Z,8.57
2022-11-03T19:11:43.845Z,8.63
2022-11-03T19:14:08.284Z,10.18
2022-11-03T19:16:35.059Z,7.95
2022-11-03T19:18:58.304Z,7.70
2022-11-03T19:21:23.889Z,9.68
2022-11-03T19:23:48.159Z,9.75
2022-11-03T19:26:20.677Z,8.45
2022-11-03T19:28:44.022Z,10.65
2022-11-03T19:31:07.510Z,9.00
2022-11-03T19:33:32.584Z,8.85
2022-11-03T19:35:57.894Z,9.25
2022-11-03T19:38:21.397Z,9.05
2022-11-03T19:40:59.939Z,7.95
2022-11-03T19:43:23.206Z,10.50
2022-11-03T19:45:46.479Z,8.57
2022-11-03T19:48:24.258Z,11.43
2022-11-03T19:50:50.188Z,11.10
2022-11-03T19:53:19.701Z,10.25
2022-11-03T19:55:43.961Z,9.55
2022-11-03T19:58:15.682Z,8.07
2022-11-03T20:00:38.969Z,10.60
2022-11-03T20:03:03.147Z,8.57
2022-11-03T20:05:26.551Z,12.00
2022-11-03T20:07:51.159Z,9.98
2022-11-03T20:10:19.674Z,10.52
2022-11-03T20:12:43.411Z,10.02
2022-11-03T20:15:17.384Z,9.88
2022-11-03T20:17:40.711Z,8.48
2022-11-03T20:20:04.119Z,9.20
2022-11-03T20:22:31.113Z,9.57
2022-11-03T20:24:59.704Z,9.80
2022-11-03T20:27:22.913Z,11.13
2022-11-03T20:29:47.879Z,9.05
2022-11-03T20:32:12.789Z,9.60
2022-11-03T20:34:36.151Z,8.68
2022-11-03T20:37:04.603Z,9.80
2022-11-03T20:39:29.167Z,10.88
2022-11-03T20:41:56.524Z,11.20
2022-11-03T20:44:19.890Z,8.93
2022-11-03T20:46:43.753Z,10.27
2022-11-03T20:49:07.026Z,7.97
2022-11-03T20:51:35.929Z,9.70
2022-11-03T20:53:59.515Z,7.72
2022-11-03T20:56:25.517Z,7.88
2022-11-03T20:58:50.682Z,8.50
2022-11-03T21:01:17.727Z,9.75
2022-11-03T21:06:24.351Z,9.15
2022-11-03T21:08:48.880Z,7.45
2022-11-03T21:11:28.301Z,8.15
2022-11-03T21:13:55.556Z,8.40
2022-11-03T21:16:36.182Z,7.88
2022-11-03T21:19:16.806Z,8.63
2022-11-03T21:21:40.360Z,8.50
2022-11-03T21:24:04.173Z,6.78
2022-11-03T21:26:27.601Z,6.90
2022-11-03T21:28:52.189Z,9.23
2022-11-03T21:31:15.493Z,10.73
2022-11-03T21:33:38.694Z,8.32
2022-11-03T21:36:02.351Z,7.72
2022-11-03T21:38:25.630Z,10.50
2022-11-03T21:40:56.262Z,10.15
2022-11-03T21:43:37.777Z,9.27
2022-11-03T21:46:08.939Z,6.07
2022-11-03T21:48:49.782Z,5.65
2022-11-03T21:51:13.078Z,6.32
2022-11-03T21:53:36.298Z,5.72
2022-11-03T21:55:59.671Z,5.00
2022-11-03T21:58:22.992Z,4.75
2022-11-03T22:00:47.071Z,2.80
2022-11-03T22:03:12.114Z,4.15
2022-11-03T22:05:35.355Z,4.20
2022-11-03T22:07:58.682Z,3.88
2022-11-03T22:10:22.010Z,3.90
2022-11-03T22:12:45.289Z,3.60
2022-11-03T22:15:27.406Z,3.55
2022-11-03T22:17:50.666Z,5.25
2022-11-03T22:20:32.898Z,4.82
2022-11-03T22:23:13.510Z,3.97
2022-11-03T22:25:54.004Z,3.53
2022-11-03T22:28:17.545Z,3.83
2022-11-03T22:30:58.960Z,3.60
2022-11-03T22:33:22.219Z,4.43
2022-11-03T22:36:04.371Z,3.08
2022-11-03T22:38:41.521Z,3.83
2022-11-03T22:41:22.365Z,1.73
2022-11-03T22:44:05.462Z,1.67
2022-11-03T22:46:28.676Z,1.77
2022-11-03T22:48:51.960Z,2.15
2022-11-03T22:51:17.771Z,2.58
2022-11-03T22:53:58.802Z,2.58
2022-11-03T22:56:23.194Z,2.53
2022-11-03T22:58:47.005Z,2.08
2022-11-03T23:01:13.616Z,2.50
2022-11-03T23:03:39.613Z,2.67
2022-11-03T23:06:05.702Z,2.60
2022-11-03T23:08:32.469Z,1.60
2022-11-03T23:10:55.711Z,2.30
2022-11-03T23:13:18.981Z,1.88
2022-11-03T23:15:43.784Z,3.60
2022-11-03T23:18:24.666Z,2.65
2022-11-03T23:21:06.023Z,2.28
2022-11-03T23:23:48.746Z,3.00
2022-11-03T23:26:12.089Z,1.90
2022-11-03T23:28:35.313Z,2.47
2022-11-03T23:30:58.557Z,3.13
2022-11-03T23:33:21.903Z,2.58
2022-11-03T23:35:45.104Z,3.55
2022-11-03T23:38:08.551Z,2.20
2022-11-03T23:40:34.523Z,2.20
2022-11-03T23:42:57.722Z,1.55
2022-11-03T23:45:38.707Z,1.80
2022-11-03T23:48:19.712Z,1.20
2022-11-03T23:50:45.059Z,2.60
2022-11-03T23:53:08.233Z,2.08
2022-11-03T23:55:54.762Z,2.90
2022-11-03T23:58:19.662Z,2.67
